createdAt,value
2018-04-13T00:00:42.167Z,1.20
2018-04-13T00:01:42.402Z,1.20
2018-04-13T00:02:42.625Z,1.00
2018-04-13T00:03:42.856Z,1.30
2018-04-13T00:04:43.120Z,1.30
2018-04-13T00:05:43.307Z,1.50
2018-04-13T00:06:43.543Z,1.80
2018-04-13T00:07:43.772Z,1.40
2018-04-13T00:08:43.996Z,1.40
2018-04-13T00:09:44.229Z,1.00
2018-04-13T00:10:44.466Z,0.90
2018-04-13T00:11:44.693Z,1.50
2018-04-13T00:12:44.928Z,1.10
2018-04-13T00:13:45.151Z,0.80
2018-04-13T00:14:45.378Z,1.20
2018-04-13T00:15:45.613Z,1.20
2018-04-13T00:16:45.838Z,1.20
2018-04-13T00:17:46.063Z,1.30
2018-04-13T00:18:46.297Z,1.20
2018-04-13T00:19:46.520Z,1.50
2018-04-13T00:20:46.750Z,0.90
2018-04-13T00:21:46.979Z,1.10
2018-04-13T00:22:47.209Z,1.40
2018-04-13T00:23:47.438Z,1.10
2018-04-13T00:24:47.669Z,1.00
2018-04-13T00:25:47.897Z,1.20
2018-04-13T00:26:48.128Z,1.10
2018-04-13T00:27:48.363Z,1.10
2018-04-13T00:28:48.584Z,1.60
2018-04-13T00:29:48.816Z,1.00
2018-04-13T00:30:49.042Z,1.00
2018-04-13T00:31:49.273Z,1.60
2018-04-13T00:32:49.503Z,1.30
2018-04-13T00:33:49.734Z,1.30
2018-04-13T00:34:49.965Z,1.10
2018-04-13T00:35:50.198Z,1.50
2018-04-13T00:36:50.421Z,1.40
2018-04-13T00:37:50.648Z,1.10
2018-04-13T00:38:50.876Z,1.40
2018-04-13T00:39:51.107Z,1.20
2018-04-13T00:40:51.337Z,1.10
2018-04-13T00:41:51.573Z,1.00
2018-04-13T00:42:51.794Z,1.30
2018-04-13T00:43:52.025Z,1.20
2018-04-13T00:44:52.255Z,1.00
2018-04-13T00:45:52.484Z,1.20
2018-04-13T00:46:52.714Z,1.30
2018-04-13T00:47:52.946Z,1.40
2018-04-13T00:48:53.174Z,1.20
2018-04-13T00:49:53.404Z,1.10
2018-04-13T00:50:53.635Z,1.10
2018-04-13T00:51:53.860Z,1.10
2018-04-13T00:52:54.090Z,1.30
2018-04-13T00:53:54.318Z,1.30
2018-04-13T00:54:54.545Z,1.00
2018-04-13T00:55:54.773Z,1.20
2018-04-13T00:56:55.003Z,1.10
2018-04-13T00:57:55.233Z,1.10
2018-04-13T00:58:55.466Z,1.60
2018-04-13T00:59:55.694Z,1.60
2018-04-13T01:00:55.927Z,1.10
2018-04-13T01:01:56.153Z,1.20
2018-04-13T01:02:56.381Z,1.10
2018-04-13T01:03:56.613Z,1.10
2018-04-13T01:04:56.840Z,1.00
2018-04-13T01:05:57.066Z,1.30
2018-04-13T01:06:57.298Z,1.40
2018-04-13T01:07:57.522Z,1.20
2018-04-13T01:08:57.755Z,1.00
2018-04-13T01:09:57.983Z,1.10
2018-04-13T01:10:58.210Z,1.20
2018-04-13T01:11:58.440Z,1.30
2018-04-13T01:12:58.669Z,0.90
2018-04-13T01:13:58.900Z,1.20
2018-04-13T01:14:59.134Z,1.40
2018-04-13T01:15:59.360Z,1.40
2018-04-13T01:16:59.588Z,1.10
2018-04-13T01:17:59.824Z,0.90
2018-04-13T01:19:00.051Z,1.10
2018-04-13T01:20:00.283Z,1.20
2018-04-13T01:21:00.511Z,1.00
2018-04-13T01:22:00.743Z,1.30
2018-04-13T01:23:00.972Z,1.20
2018-04-13T01:24:01.204Z,1.00
2018-04-13T01:25:01.435Z,1.10
2018-04-13T01:26:01.661Z,1.30
2018-04-13T01:27:01.899Z,1.30
2018-04-13T01:28:02.108Z,1.00
2018-04-13T01:29:02.356Z,1.20
2018-04-13T01:30:02.587Z,1.20
2018-04-13T01:31:02.816Z,1.40
2018-04-13T01:32:03.047Z,1.10
2018-04-13T01:33:03.274Z,1.30
2018-04-13T01:34:03.502Z,1.10
2018-04-13T01:35:03.730Z,1.60
2018-04-13T01:36:03.959Z,1.10
2018-04-13T01:37:04.189Z,1.20
2018-04-13T01:38:04.421Z,1.30
2018-04-13T01:39:04.654Z,1.10
2018-04-13T01:40:04.885Z,1.10
2018-04-13T01:41:05.109Z,1.40
2018-04-13T01:42:05.338Z,1.40
2018-04-13T01:43:05.566Z,1.00
2018-04-13T01:44:05.805Z,1.30
2018-04-13T01:45:06.014Z,1.60
2018-04-13T01:46:06.244Z,1.00
2018-04-13T01:47:06.474Z,1.30
2018-04-13T01:48:06.706Z,1.30
2018-04-13T01:49:06.933Z,1.20
2018-04-13T01:50:07.163Z,1.20
2018-04-13T01:51:07.393Z,2.10
2018-04-13T01:52:07.623Z,1.40
2018-04-13T01:53:07.857Z,1.20
2018-04-13T01:54:08.085Z,1.50
2018-04-13T01:55:08.312Z,1.70
2018-04-13T01:56:08.543Z,1.40
2018-04-13T01:57:08.771Z,1.50
2018-04-13T01:58:09.002Z,1.70
2018-04-13T01:59:09.233Z,1.70
2018-04-13T02:00:09.461Z,1.80
2018-04-13T02:01:09.692Z,1.90
2018-04-13T02:02:09.920Z,1.20
2018-04-13T02:03:10.150Z,1.60
2018-04-13T02:04:10.379Z,1.60
2018-04-13T02:05:10.626Z,1.60
2018-04-13T02:06:10.862Z,2.00
2018-04-13T02:07:11.091Z,2.50
2018-04-13T02:08:11.322Z,1.70
2018-04-13T02:09:11.551Z,1.70
2018-04-13T02:10:11.785Z,1.90
2018-04-13T02:11:12.011Z,1.90
2018-04-13T02:12:12.242Z,1.70
2018-04-13T02:13:12.471Z,1.50
2018-04-13T02:14:12.698Z,1.70
2018-04-13T02:15:12.929Z,1.80
2018-04-13T02:16:13.158Z,1.90
2018-04-13T02:17:13.389Z,2.00
2018-04-13T02:18:13.618Z,2.00
2018-04-13T02:19:13.846Z,1.60
2018-04-13T02:20:14.075Z,1.60
2018-04-13T02:21:14.305Z,1.90
2018-04-13T02:22:14.539Z,1.20
2018-04-13T02:23:14.760Z,1.60
2018-04-13T02:24:14.991Z,1.50
2018-04-13T02:25:15.221Z,2.00
2018-04-13T02:26:15.450Z,1.50
2018-04-13T02:27:15.678Z,1.10
2018-04-13T02:28:15.909Z,1.10
2018-04-13T02:29:16.137Z,1.00
2018-04-13T02:30:16.368Z,1.30
2018-04-13T02:31:16.600Z,1.20
2018-04-13T02:32:16.831Z,1.40
2018-04-13T02:33:17.069Z,1.50
2018-04-13T02:34:17.342Z,1.30
2018-04-13T02:35:17.516Z,1.60
2018-04-13T02:36:17.745Z,1.80
2018-04-13T02:37:17.975Z,1.70
2018-04-13T02:38:18.213Z,1.50
2018-04-13T02:39:18.436Z,1.70
2018-04-13T02:40:18.666Z,1.30
2018-04-13T02:41:18.894Z,1.60
2018-04-13T02:42:19.124Z,1.60
2018-04-13T02:43:19.354Z,1.50
2018-04-13T02:44:19.585Z,1.40
2018-04-13T02:45:19.822Z,1.30
2018-04-13T02:46:20.045Z,1.30
2018-04-13T02:47:20.273Z,1.60
2018-04-13T02:48:20.505Z,1.20
2018-04-13T02:49:20.734Z,1.60
2018-04-13T02:50:20.963Z,1.70
2018-04-13T02:51:21.198Z,1.70
2018-04-13T02:52:21.424Z,1.60
2018-04-13T02:53:21.653Z,1.60
2018-04-13T02:54:21.882Z,1.70
2018-04-13T02:55:22.113Z,1.50
2018-04-13T02:56:22.339Z,2.00
2018-04-13T02:57:22.570Z,1.40
2018-04-13T02:58:22.800Z,1.40
2018-04-13T02:59:23.029Z,1.50
2018-04-13T03:00:23.258Z,2.10
2018-04-13T03:01:23.492Z,1.60
2018-04-13T03:02:23.722Z,1.60
2018-04-13T03:03:23.949Z,2.10
2018-04-13T03:04:24.179Z,1.80
2018-04-13T03:05:24.408Z,1.80
2018-04-13T03:06:24.638Z,1.80
2018-04-13T03:07:24.871Z,1.30
2018-04-13T03:08:25.101Z,2.00
2018-04-13T03:09:25.328Z,1.90
2018-04-13T03:10:25.546Z,1.70
2018-04-13T03:11:25.782Z,1.50
2018-04-13T03:12:26.010Z,1.60
2018-04-13T03:13:26.243Z,2.00
2018-04-13T03:14:26.501Z,1.80
2018-04-13T03:15:26.700Z,2.00
2018-04-13T03:16:26.930Z,1.40
2018-04-13T03:17:27.159Z,1.50
2018-04-13T03:18:27.388Z,1.80
2018-04-13T03:19:27.620Z,1.60
2018-04-13T03:20:27.848Z,1.60
2018-04-13T03:21:28.079Z,1.50
2018-04-13T03:22:28.312Z,1.40
2018-04-13T03:23:28.539Z,1.90
2018-04-13T03:24:28.771Z,2.40
2018-04-13T03:25:28.997Z,2.50
2018-04-13T03:26:29.226Z,1.70
2018-04-13T03:27:29.455Z,1.90
2018-04-13T03:28:29.690Z,1.70
2018-04-13T03:29:29.916Z,1.60
2018-04-13T03:30:30.144Z,1.40
2018-04-13T03:31:30.382Z,2.10
2018-04-13T03:32:30.598Z,1.80
2018-04-13T03:33:30.829Z,1.80
2018-04-13T03:34:31.060Z,2.10
2018-04-13T03:35:31.289Z,2.10
2018-04-13T03:36:31.519Z,2.10
2018-04-13T03:37:31.745Z,2.20
2018-04-13T03:38:31.975Z,2.10
2018-04-13T03:39:32.206Z,1.70
2018-04-13T03:40:32.437Z,1.60
2018-04-13T03:41:32.668Z,2.00
2018-04-13T03:42:32.893Z,1.70
2018-04-13T03:43:33.123Z,1.70
2018-04-13T03:44:33.353Z,1.80
2018-04-13T03:45:33.582Z,1.70
2018-04-13T03:46:33.812Z,1.80
2018-04-13T03:47:34.042Z,2.40
2018-04-13T03:48:34.270Z,1.60
2018-04-13T03:49:34.501Z,1.60
2018-04-13T03:50:34.733Z,1.60
2018-04-13T03:51:34.961Z,1.50
2018-04-13T03:52:35.190Z,1.50
2018-04-13T03:53:35.419Z,1.70
2018-04-13T03:54:35.649Z,1.30
2018-04-13T03:55:35.879Z,1.90
2018-04-13T03:56:36.108Z,1.40
2018-04-13T03:57:36.337Z,1.90
2018-04-13T03:58:36.569Z,1.80
2018-04-13T03:59:36.792Z,1.90
2018-04-13T04:00:37.021Z,2.10
2018-04-13T04:01:37.249Z,2.40
2018-04-13T04:02:37.479Z,1.70
2018-04-13T04:03:37.714Z,2.00
2018-04-13T04:04:37.953Z,1.60
2018-04-13T04:05:38.170Z,1.50
2018-04-13T04:06:38.401Z,1.50
2018-04-13T04:07:38.635Z,1.80
2018-04-13T04:08:38.864Z,2.00
2018-04-13T04:09:39.098Z,2.00
2018-04-13T04:10:39.328Z,2.00
2018-04-13T04:11:39.555Z,2.00
2018-04-13T04:12:39.786Z,1.90
2018-04-13T04:13:40.015Z,1.90
2018-04-13T04:14:40.243Z,1.80
2018-04-13T04:15:40.473Z,2.30
2018-04-13T04:16:40.704Z,1.60
2018-04-13T04:17:40.931Z,2.30
2018-04-13T04:18:41.161Z,1.90
2018-04-13T04:19:41.390Z,1.60
2018-04-13T04:20:41.620Z,1.90
2018-04-13T04:21:41.849Z,1.90
2018-04-13T04:22:42.080Z,1.70
2018-04-13T04:23:42.308Z,1.50
2018-04-13T04:24:42.541Z,2.00
2018-04-13T04:25:42.767Z,1.90
2018-04-13T04:26:42.996Z,1.80
2018-04-13T04:27:43.225Z,1.40
2018-04-13T04:28:43.459Z,1.70
2018-04-13T04:29:43.687Z,1.70
2018-04-13T04:30:43.916Z,1.80
2018-04-13T04:31:44.147Z,2.30
2018-04-13T04:32:44.376Z,2.30
2018-04-13T04:33:44.605Z,2.20
2018-04-13T04:34:44.837Z,1.70
2018-04-13T04:35:45.063Z,1.90
2018-04-13T04:36:45.291Z,2.00
2018-04-13T04:37:45.521Z,1.80
2018-04-13T04:38:45.752Z,2.00
2018-04-13T04:39:45.980Z,1.60
2018-04-13T04:40:46.210Z,1.90
2018-04-13T04:41:46.439Z,3.00
2018-04-13T04:42:46.669Z,2.20
2018-04-13T04:43:46.900Z,2.20
2018-04-13T04:44:47.129Z,2.50
2018-04-13T04:45:47.359Z,1.90
2018-04-13T04:46:47.589Z,1.70
2018-04-13T04:47:47.818Z,1.50
2018-04-13T04:48:48.052Z,1.80
2018-04-13T04:49:48.277Z,1.80
2018-04-13T04:50:48.509Z,1.60
2018-04-13T04:51:48.737Z,2.70
2018-04-13T04:52:48.968Z,2.30
2018-04-13T04:53:49.197Z,2.20
2018-04-13T04:54:49.428Z,1.90
2018-04-13T04:55:49.664Z,2.10
2018-04-13T04:56:49.888Z,2.50
2018-04-13T04:57:50.124Z,2.70
2018-04-13T04:58:50.349Z,3.00
2018-04-13T04:59:50.580Z,2.60
2018-04-13T05:00:50.813Z,2.20
2018-04-13T05:01:51.040Z,2.30
2018-04-13T05:02:51.271Z,2.30
2018-04-13T05:03:51.500Z,2.40
2018-04-13T05:04:51.731Z,2.20
2018-04-13T05:05:51.959Z,2.30
2018-04-13T05:06:52.189Z,2.60
2018-04-13T05:07:52.419Z,2.00
2018-04-13T05:08:52.649Z,2.20
2018-04-13T05:09:52.879Z,2.80
2018-04-13T05:10:53.107Z,2.10
2018-04-13T05:11:53.343Z,1.90
2018-04-13T05:12:53.570Z,2.10
2018-04-13T05:13:53.798Z,3.20
2018-04-13T05:14:54.028Z,4.10
2018-04-13T05:15:54.261Z,4.90
2018-04-13T05:16:54.490Z,5.80
2018-04-13T05:17:54.720Z,5.20
2018-04-13T05:18:54.949Z,5.70
2018-04-13T05:19:55.179Z,4.40
2018-04-13T05:20:55.411Z,4.40
2018-04-13T05:21:55.641Z,4.50
2018-04-13T05:22:55.872Z,4.50
2018-04-13T05:23:56.103Z,4.40
2018-04-13T05:24:56.331Z,3.10
2018-04-13T05:25:56.560Z,3.40
2018-04-13T05:26:56.790Z,3.70
2018-04-13T05:27:57.025Z,5.40
2018-04-13T05:28:57.249Z,4.90
2018-04-13T05:29:57.478Z,3.60
2018-04-13T05:30:57.709Z,3.10
2018-04-13T05:31:57.937Z,2.80
2018-04-13T05:32:58.167Z,2.80
2018-04-13T05:33:58.395Z,3.20
2018-04-13T05:34:58.624Z,2.40
2018-04-13T05:35:58.857Z,2.40
2018-04-13T05:36:59.084Z,2.50
2018-04-13T05:37:59.356Z,2.60
2018-04-13T05:38:59.552Z,2.30
2018-04-13T05:39:59.773Z,2.40
2018-04-13T05:41:00.007Z,2.30
2018-04-13T05:42:00.236Z,2.00
2018-04-13T05:43:00.465Z,2.40
2018-04-13T05:44:00.694Z,2.10
2018-04-13T05:45:00.925Z,2.30
2018-04-13T05:46:01.162Z,2.10
2018-04-13T05:47:01.385Z,1.90
2018-04-13T05:48:01.616Z,2.30
2018-04-13T05:49:01.847Z,2.00
2018-04-13T05:50:02.083Z,2.40
2018-04-13T05:51:02.309Z,2.10
2018-04-13T05:52:02.534Z,1.90
2018-04-13T05:53:02.768Z,1.80
2018-04-13T05:54:02.999Z,2.10
2018-04-13T05:55:03.227Z,2.00
2018-04-13T05:56:03.457Z,2.20
2018-04-13T05:57:03.687Z,2.50
2018-04-13T05:58:03.923Z,2.30
2018-04-13T05:59:04.145Z,1.80
2018-04-13T06:00:04.380Z,2.80
2018-04-13T06:01:04.601Z,1.90
2018-04-13T06:02:04.835Z,2.00
2018-04-13T06:03:05.067Z,2.00
2018-04-13T06:04:05.296Z,2.30
2018-04-13T06:05:05.526Z,2.30
2018-04-13T06:06:05.794Z,1.90
2018-04-13T06:07:05.982Z,2.20
2018-04-13T06:08:06.217Z,1.80
2018-04-13T06:09:06.443Z,1.60
2018-04-13T06:10:06.672Z,3.30
2018-04-13T06:11:06.904Z,3.90
2018-04-13T06:12:07.128Z,3.40
2018-04-13T06:13:07.359Z,3.20
2018-04-13T06:14:07.591Z,3.30
2018-04-13T06:15:07.818Z,3.20
2018-04-13T06:16:08.051Z,2.80
2018-04-13T06:17:08.277Z,3.30
2018-04-13T06:18:08.504Z,4.10
2018-04-13T06:19:08.725Z,3.50
2018-04-13T06:20:08.962Z,3.50
2018-04-13T06:21:09.195Z,3.40
2018-04-13T06:22:09.424Z,4.00
2018-04-13T06:23:09.654Z,3.50
2018-04-13T06:24:09.882Z,4.60
2018-04-13T06:25:10.115Z,3.50
2018-04-13T06:26:10.347Z,3.40
2018-04-13T06:27:10.573Z,3.70
2018-04-13T06:28:10.803Z,3.30
2018-04-13T06:29:11.036Z,3.70
2018-04-13T06:30:11.288Z,4.10
2018-04-13T06:31:11.499Z,3.10
2018-04-13T06:32:11.726Z,2.30
2018-04-13T06:33:11.962Z,2.70
2018-04-13T06:34:12.187Z,2.80
2018-04-13T06:35:12.419Z,2.80
2018-04-13T06:36:12.651Z,2.90
2018-04-13T06:37:12.898Z,3.50
2018-04-13T06:38:13.120Z,2.80
2018-04-13T06:39:13.345Z,2.10
2018-04-13T06:40:13.572Z,1.80
2018-04-13T06:41:13.806Z,1.80
2018-04-13T06:42:14.027Z,2.30
2018-04-13T06:43:14.261Z,2.20
2018-04-13T06:44:14.490Z,2.00
2018-04-13T06:45:14.720Z,2.00
2018-04-13T06:46:14.949Z,2.30
2018-04-13T06:47:15.179Z,2.10
2018-04-13T06:48:15.412Z,2.50
2018-04-13T06:49:15.643Z,2.90
2018-04-13T06:50:15.871Z,2.90
2018-04-13T06:51:16.098Z,3.00
2018-04-13T06:52:16.329Z,3.50
2018-04-13T06:53:16.556Z,1.90
2018-04-13T06:54:16.786Z,2.90
2018-04-13T06:55:17.024Z,2.30
2018-04-13T06:56:17.242Z,2.30
2018-04-13T06:57:17.469Z,2.40
2018-04-13T06:58:17.701Z,2.20
2018-04-13T06:59:17.928Z,2.30
2018-04-13T07:00:18.156Z,2.40
2018-04-13T07:01:18.391Z,2.30
2018-04-13T07:02:18.615Z,2.30
2018-04-13T07:03:18.846Z,2.50
2018-04-13T07:04:19.073Z,2.20
2018-04-13T07:05:19.306Z,1.90
2018-04-13T07:06:19.536Z,2.60
2018-04-13T07:07:19.764Z,2.70
2018-04-13T07:08:20.027Z,2.20
2018-04-13T07:09:20.226Z,2.30
2018-04-13T07:10:20.457Z,2.90
2018-04-13T07:11:20.687Z,2.40
2018-04-13T07:12:20.919Z,3.50
2018-04-13T07:13:21.145Z,2.60
2018-04-13T07:14:21.376Z,2.40
2018-04-13T07:15:21.603Z,3.20
2018-04-13T07:16:21.831Z,2.90
2018-04-13T07:17:22.064Z,2.70
2018-04-13T07:18:22.292Z,3.00
2018-04-13T07:19:22.518Z,2.60
2018-04-13T07:20:22.758Z,2.80
2018-04-13T07:21:22.988Z,3.20
2018-04-13T07:22:23.213Z,4.00
2018-04-13T07:23:23.449Z,2.80
2018-04-13T07:24:23.671Z,2.70
2018-04-13T07:25:23.898Z,3.00
2018-04-13T07:26:24.133Z,2.10
2018-04-13T07:27:24.363Z,2.90
2018-04-13T07:28:24.591Z,2.70
2018-04-13T07:29:24.819Z,2.30
2018-04-13T07:30:25.052Z,2.40
2018-04-13T07:31:25.639Z,2.40
2018-04-13T07:32:25.541Z,2.60
2018-04-13T07:33:25.764Z,3.10
2018-04-13T07:34:26.196Z,2.90
2018-04-13T07:35:26.228Z,2.80
2018-04-13T07:36:26.460Z,2.30
2018-04-13T07:37:26.691Z,2.60
2018-04-13T07:38:26.924Z,3.00
2018-04-13T07:39:27.146Z,2.90
2018-04-13T07:40:27.370Z,2.70
2018-04-13T07:41:27.993Z,2.50
2018-04-13T07:42:28.152Z,2.50
2018-04-13T07:43:28.063Z,2.70
2018-04-13T07:44:28.292Z,2.40
2018-04-13T07:45:28.523Z,2.30
2018-04-13T07:46:28.753Z,2.40
2018-04-13T07:47:28.982Z,2.50
2018-04-13T07:48:29.218Z,2.40
2018-04-13T07:49:29.678Z,2.70
2018-04-13T07:50:29.676Z,2.80
2018-04-13T07:51:30.010Z,2.30
2018-04-13T07:52:30.191Z,2.80
2018-04-13T07:53:30.400Z,2.40
2018-04-13T07:54:30.744Z,3.00
2018-04-13T07:55:30.799Z,2.70
2018-04-13T07:56:31.029Z,2.60
2018-04-13T07:57:31.255Z,2.30
2018-04-13T07:58:31.482Z,2.50
2018-04-13T07:59:31.711Z,2.40
2018-04-13T08:00:31.978Z,2.20
2018-04-13T08:01:32.202Z,2.60
2018-04-13T08:02:32.393Z,2.70
2018-04-13T08:03:32.624Z,2.50
2018-04-13T08:04:32.858Z,2.70
2018-04-13T08:05:33.145Z,2.50
2018-04-13T08:06:33.312Z,2.10
2018-04-13T08:07:33.551Z,2.20
2018-04-13T08:08:33.779Z,2.20
2018-04-13T08:09:33.996Z,2.00
2018-04-13T08:10:34.228Z,2.20
2018-04-13T08:11:34.455Z,1.80
2018-04-13T08:12:34.683Z,2.50
2018-04-13T08:13:34.913Z,2.00
2018-04-13T08:14:35.144Z,2.40
2018-04-13T08:15:35.375Z,2.60
2018-04-13T08:16:35.603Z,2.10
2018-04-13T08:17:35.839Z,2.20
2018-04-13T08:18:36.068Z,2.40
2018-04-13T08:19:36.303Z,2.30
2018-04-13T08:20:36.530Z,1.90
2018-04-13T08:21:36.761Z,2.30
2018-04-13T08:22:36.990Z,1.90
2018-04-13T08:23:37.225Z,2.00
2018-04-13T08:24:37.461Z,2.10
2018-04-13T08:25:37.683Z,2.10
2018-04-13T08:26:37.911Z,2.30
2018-04-13T08:27:38.146Z,2.60
2018-04-13T08:28:38.371Z,2.70
2018-04-13T08:29:38.624Z,3.00
2018-04-13T08:30:38.823Z,2.60
2018-04-13T08:31:39.083Z,2.40
2018-04-13T08:32:39.280Z,2.30
2018-04-13T08:33:39.511Z,2.80
2018-04-13T08:34:39.738Z,2.30
2018-04-13T08:35:39.995Z,3.00
2018-04-13T08:36:40.229Z,2.00
2018-04-13T08:37:40.427Z,2.50
2018-04-13T08:38:40.658Z,2.30
2018-04-13T08:39:40.886Z,2.20
2018-04-13T08:40:41.115Z,2.40
2018-04-13T08:41:41.351Z,2.20
2018-04-13T08:42:41.576Z,2.80
2018-04-13T08:43:41.816Z,2.50
2018-04-13T08:44:42.051Z,2.50
2018-04-13T08:45:42.288Z,2.70
2018-04-13T08:46:42.521Z,2.50
2018-04-13T08:47:42.744Z,3.00
2018-04-13T08:48:43.093Z,3.10
2018-04-13T08:49:43.206Z,3.20
2018-04-13T08:50:43.441Z,3.30
2018-04-13T08:51:43.676Z,2.70
2018-04-13T08:52:43.926Z,3.10
2018-04-13T08:53:44.128Z,3.40
2018-04-13T08:54:44.358Z,2.70
2018-04-13T08:55:44.590Z,3.00
2018-04-13T08:56:44.821Z,3.60
2018-04-13T08:57:45.094Z,3.30
2018-04-13T08:58:45.280Z,3.60
2018-04-13T08:59:45.510Z,3.70
2018-04-13T09:00:45.745Z,2.90
2018-04-13T09:01:45.973Z,2.50
2018-04-13T09:02:46.216Z,3.20
2018-04-13T09:03:46.445Z,3.70
2018-04-13T09:04:46.705Z,3.20
2018-04-13T09:05:46.903Z,3.20
2018-04-13T09:06:47.135Z,3.60
2018-04-13T09:07:47.364Z,3.70
2018-04-13T09:08:47.593Z,3.20
2018-04-13T09:09:47.828Z,4.00
2018-04-13T09:10:48.090Z,2.80
2018-04-13T09:11:48.294Z,2.80
2018-04-13T09:12:48.528Z,3.10
2018-04-13T09:13:48.762Z,3.40
2018-04-13T09:14:48.984Z,3.70
2018-04-13T09:15:49.200Z,3.00
2018-04-13T09:16:49.446Z,3.70
2018-04-13T09:17:49.687Z,3.80
2018-04-13T09:18:49.907Z,4.20
2018-04-13T09:19:50.134Z,3.50
2018-04-13T09:20:50.488Z,4.10
2018-04-13T09:21:50.594Z,4.40
2018-04-13T09:22:50.826Z,3.30
2018-04-13T09:23:51.058Z,4.30
2018-04-13T09:24:51.284Z,4.60
2018-04-13T09:25:51.514Z,4.30
2018-04-13T09:26:51.748Z,4.60
2018-04-13T09:27:51.979Z,5.40
2018-04-13T09:28:52.212Z,4.70
2018-04-13T09:29:52.442Z,5.00
2018-04-13T09:30:52.674Z,4.80
2018-04-13T09:31:52.907Z,5.10
2018-04-13T09:32:53.168Z,4.40
2018-04-13T09:33:53.346Z,4.90
2018-04-13T09:34:53.677Z,5.00
2018-04-13T09:35:53.831Z,5.70
2018-04-13T09:36:54.141Z,5.60
2018-04-13T09:37:54.228Z,6.70
2018-04-13T09:38:54.461Z,6.20
2018-04-13T09:39:54.689Z,6.30
2018-04-13T09:40:54.919Z,6.50
2018-04-13T09:41:55.153Z,7.30
2018-04-13T09:42:55.382Z,6.80
2018-04-13T09:43:55.611Z,6.70
2018-04-13T09:44:55.839Z,6.90
2018-04-13T09:45:56.072Z,7.80
2018-04-13T09:46:56.346Z,7.90
2018-04-13T09:47:56.532Z,6.70
2018-04-13T09:48:56.759Z,6.80
2018-04-13T09:49:56.992Z,6.90
2018-04-13T09:50:57.238Z,7.20
2018-04-13T09:51:57.470Z,6.60
2018-04-13T09:52:57.697Z,7.00
2018-04-13T09:53:57.927Z,6.90
2018-04-13T09:54:58.159Z,7.70
2018-04-13T09:55:58.389Z,7.40
2018-04-13T09:56:58.619Z,8.60
2018-04-13T09:57:58.850Z,8.30
2018-04-13T09:58:59.079Z,9.00
2018-04-13T09:59:59.305Z,8.20
2018-04-13T10:00:59.539Z,8.90
2018-04-13T10:01:59.779Z,9.30
2018-04-13T10:03:00.011Z,9.80
2018-04-13T10:04:00.232Z,9.70
2018-04-13T10:05:00.458Z,9.70
2018-04-13T10:06:00.700Z,10.10
2018-04-13T10:07:00.922Z,9.90
2018-04-13T10:08:01.210Z,9.30
2018-04-13T10:09:01.384Z,10.70
2018-04-13T10:10:01.618Z,9.60
2018-04-13T10:11:01.851Z,9.60
2018-04-13T10:12:02.083Z,11.00
2018-04-13T10:13:02.311Z,9.70
2018-04-13T10:14:02.544Z,10.80
2018-04-13T10:15:02.775Z,9.10
2018-04-13T10:16:03.007Z,10.40
2018-04-13T10:17:03.235Z,10.00
2018-04-13T10:18:03.467Z,8.90
2018-04-13T10:19:03.700Z,10.50
2018-04-13T10:20:03.932Z,9.80
2018-04-13T10:21:04.162Z,9.50
2018-04-13T10:22:04.395Z,9.40
2018-04-13T10:23:04.633Z,9.80
2018-04-13T10:24:04.858Z,10.10
2018-04-13T10:25:05.085Z,10.20
2018-04-13T10:26:05.322Z,11.40
2018-04-13T10:27:05.554Z,10.60
2018-04-13T10:28:05.790Z,11.10
2018-04-13T10:29:06.013Z,10.80
2018-04-13T10:30:06.248Z,11.10
2018-04-13T10:31:06.480Z,11.00
2018-04-13T10:32:06.711Z,11.60
2018-04-13T10:33:06.944Z,11.70
2018-04-13T10:34:07.173Z,11.20
2018-04-13T10:35:07.402Z,11.10
2018-04-13T10:36:07.660Z,12.20
2018-04-13T10:37:07.866Z,11.50
2018-04-13T10:38:08.100Z,12.60
2018-04-13T10:39:08.334Z,12.20
2018-04-13T10:40:08.563Z,12.40
2018-04-13T10:41:08.794Z,12.80
2018-04-13T10:42:09.026Z,12.50
2018-04-13T10:43:09.258Z,11.50
2018-04-13T10:44:09.491Z,12.80
2018-04-13T10:45:09.723Z,12.60
2018-04-13T10:46:09.953Z,11.60
2018-04-13T10:47:10.187Z,11.50
2018-04-13T10:48:10.417Z,11.20
2018-04-13T10:49:10.650Z,11.80
2018-04-13T10:50:10.879Z,10.50
2018-04-13T10:51:11.112Z,11.40
2018-04-13T10:52:11.342Z,11.60
2018-04-13T10:53:11.572Z,11.90
2018-04-13T10:54:11.809Z,11.40
2018-04-13T10:55:12.035Z,11.90
2018-04-13T10:56:12.267Z,11.20
2018-04-13T10:57:12.501Z,11.20
2018-04-13T10:58:12.736Z,10.00
2018-04-13T10:59:12.966Z,10.60
2018-04-13T11:00:13.194Z,10.00
2018-04-13T11:01:13.423Z,10.40
2018-04-13T11:02:13.651Z,9.10
2018-04-13T11:03:13.882Z,11.10
2018-04-13T11:04:14.117Z,8.90
2018-04-13T11:05:14.347Z,10.30
2018-04-13T11:06:14.579Z,8.60
2018-04-13T11:07:14.811Z,9.30
2018-04-13T11:08:15.044Z,8.90
2018-04-13T11:09:15.272Z,9.40
2018-04-13T11:10:15.534Z,8.70
2018-04-13T11:11:15.734Z,9.10
2018-04-13T11:12:15.966Z,7.90
2018-04-13T11:13:16.196Z,8.90
2018-04-13T11:14:16.427Z,8.50
2018-04-13T11:15:16.659Z,8.00
2018-04-13T11:16:16.888Z,8.30
2018-04-13T11:17:17.121Z,8.20
2018-04-13T11:18:17.350Z,8.70
2018-04-13T11:19:17.582Z,8.80
2018-04-13T11:20:17.811Z,8.90
2018-04-13T11:21:18.039Z,9.00
2018-04-13T11:22:18.271Z,8.60
2018-04-13T11:23:18.509Z,8.20
2018-04-13T11:24:18.736Z,9.00
2018-04-13T11:25:18.972Z,9.70
2018-04-13T11:26:19.196Z,10.60
2018-04-13T11:27:19.430Z,9.40
2018-04-13T11:28:19.663Z,10.30
2018-04-13T11:29:19.893Z,12.30
2018-04-13T11:30:20.127Z,11.80
2018-04-13T11:31:20.351Z,10.90
2018-04-13T11:32:20.584Z,12.30
2018-04-13T11:33:20.816Z,11.50
2018-04-13T11:34:21.049Z,12.80
2018-04-13T11:35:21.279Z,10.40
2018-04-13T11:36:21.514Z,13.20
2018-04-13T11:37:21.736Z,12.40
2018-04-13T11:38:21.968Z,11.30
2018-04-13T11:39:22.198Z,12.60
2018-04-13T11:40:22.428Z,12.50
2018-04-13T11:41:22.676Z,12.40
2018-04-13T11:42:22.892Z,11.80
2018-04-13T11:43:23.122Z,11.20
2018-04-13T11:44:23.352Z,12.50
2018-04-13T11:45:23.585Z,11.60
2018-04-13T11:46:23.814Z,12.00
2018-04-13T11:47:24.042Z,13.50
2018-04-13T11:48:24.279Z,12.00
2018-04-13T11:49:24.513Z,11.50
2018-04-13T11:50:24.740Z,12.50
2018-04-13T11:51:24.975Z,14.20
2018-04-13T11:52:25.201Z,12.30
2018-04-13T11:53:25.431Z,10.50
2018-04-13T11:54:25.661Z,12.30
2018-04-13T11:55:25.902Z,12.30
2018-04-13T11:56:26.133Z,12.60
2018-04-13T11:57:26.361Z,12.20
2018-04-13T11:58:26.596Z,12.70
2018-04-13T11:59:26.827Z,12.80
2018-04-13T12:00:27.057Z,12.70
2018-04-13T12:01:27.312Z,13.20
2018-04-13T12:02:27.521Z,11.80
2018-04-13T12:03:27.748Z,11.80
2018-04-13T12:04:27.984Z,13.60
2018-04-13T12:05:28.213Z,10.90
2018-04-13T12:06:28.452Z,12.80
2018-04-13T12:07:28.674Z,13.50
2018-04-13T12:08:28.909Z,11.60
2018-04-13T12:09:29.147Z,13.20
2018-04-13T12:10:29.387Z,12.20
2018-04-13T12:11:29.618Z,12.90
2018-04-13T12:12:29.847Z,13.70
2018-04-13T12:13:30.078Z,13.50
2018-04-13T12:14:30.306Z,13.30
2018-04-13T12:15:30.536Z,12.70
2018-04-13T12:16:30.771Z,13.20
2018-04-13T12:17:30.999Z,12.10
2018-04-13T12:18:31.230Z,13.10
2018-04-13T12:19:31.475Z,13.20
2018-04-13T12:20:31.704Z,12.30
2018-04-13T12:21:31.934Z,12.60
2018-04-13T12:22:32.160Z,13.60
2018-04-13T12:23:32.402Z,13.30
2018-04-13T12:24:32.628Z,12.70
2018-04-13T12:25:32.857Z,12.80
2018-04-13T12:26:33.087Z,13.30
2018-04-13T12:27:33.313Z,13.60
2018-04-13T12:28:33.542Z,11.00
2018-04-13T12:29:33.774Z,14.10
2018-04-13T12:30:34.007Z,13.70
2018-04-13T12:31:34.237Z,12.30
2018-04-13T12:32:34.482Z,13.80
2018-04-13T12:33:34.728Z,12.40
2018-04-13T12:34:34.958Z,11.40
2018-04-13T12:35:35.197Z,13.70
2018-04-13T12:36:35.418Z,11.70
2018-04-13T12:37:35.652Z,11.80
2018-04-13T12:38:35.888Z,12.10
2018-04-13T12:39:36.116Z,11.80
2018-04-13T12:40:36.355Z,12.20
2018-04-13T12:41:36.581Z,12.20
2018-04-13T12:42:36.814Z,12.50
2018-04-13T12:43:37.059Z,12.00
2018-04-13T12:44:37.288Z,12.10
2018-04-13T12:45:37.520Z,11.30
2018-04-13T12:46:37.749Z,12.00
2018-04-13T12:47:37.996Z,13.30
2018-04-13T12:48:38.213Z,12.90
2018-04-13T12:49:38.458Z,11.60
2018-04-13T12:50:38.754Z,12.10
2018-04-13T12:51:38.870Z,10.60
2018-04-13T12:52:39.144Z,11.40
2018-04-13T12:53:39.384Z,11.70
2018-04-13T12:54:39.857Z,10.90
2018-04-13T12:55:39.821Z,10.00
2018-04-13T12:56:40.126Z,10.70
2018-04-13T12:57:40.291Z,12.10
2018-04-13T12:58:40.521Z,12.20
2018-04-13T12:59:40.758Z,11.60
2018-04-13T13:00:40.989Z,9.90
2018-04-13T13:01:41.220Z,12.00
2018-04-13T13:02:41.455Z,8.40
2018-04-13T13:03:41.680Z,8.50
2018-04-13T13:04:41.913Z,8.80
2018-04-13T13:05:42.208Z,10.00
2018-04-13T13:06:42.320Z,8.90
2018-04-13T13:07:42.551Z,9.60
2018-04-13T13:08:42.842Z,10.10
2018-04-13T13:09:43.013Z,8.30
2018-04-13T13:10:43.250Z,9.20
2018-04-13T13:11:43.484Z,9.90
2018-04-13T13:12:43.734Z,9.60
2018-04-13T13:13:43.972Z,10.00
2018-04-13T13:14:44.202Z,11.00
2018-04-13T13:15:44.431Z,11.90
2018-04-13T13:16:44.663Z,11.30